sensor_id;sensor_type;location;lat;lon;timestamp;pressure;altitude;pressure_sealevel;temperature;humidity
50592;BME280;36548;50.506;30.834;2023-07-02T00:00:06;99078.64;;;23.85;60.14
50592;BME280;36548;50.506;30.834;2023-07-02T00:01:22;99078.45;;;23.93;60.26
50592;BME280;36548;50.506;30.834;2023-07-02T00:02:31;99075.48;;;23.75;60.36
50592;BME280;36548;50.506;30.834;2023-07-02T00:03:41;99077.61;;;23.73;60.74
50592;BME280;36548;50.506;30.834;2023-07-02T00:04:50;99075.31;;;23.70;60.78
50592;BME280;36548;50.506;30.834;2023-07-02T00:05:59;99076.58;;;23.67;60.82
50592;BME280;36548;50.506;30.834;2023-07-02T00:07:14;99072.53;;;23.76;60.86
50592;BME280;36548;50.506;30.834;2023-07-02T00:08:23;99071.71;;;23.62;60.92
50592;BME280;36548;50.506;30.834;2023-07-02T00:09:39;99067.70;;;23.72;61.08
50592;BME280;36548;50.506;30.834;2023-07-02T00:10:48;99077.41;;;23.61;61.18
50592;BME280;36548;50.506;30.834;2023-07-02T00:11:58;99070.05;;;23.61;61.16
50592;BME280;36548;50.506;30.834;2023-07-02T00:13:14;99063.70;;;23.74;61.28
50592;BME280;36548;50.506;30.834;2023-07-02T00:14:24;99071.50;;;23.64;61.20
50592;BME280;36548;50.506;30.834;2023-07-02T00:15:40;99059.91;;;23.75;61.08
50592;BME280;36548;50.506;30.834;2023-07-02T00:16:51;99065.83;;;23.65;61.15
50592;BME280;36548;50.506;30.834;2023-07-02T00:18:07;99061.79;;;23.75;61.28
50592;BME280;36548;50.506;30.834;2023-07-02T00:19:17;99072.58;;;23.63;61.13
50592;BME280;36548;50.506;30.834;2023-07-02T00:20:33;99063.27;;;23.71;61.25
50592;BME280;36548;50.506;30.834;2023-07-02T00:21:46;99067.50;;;23.60;61.53
50592;BME280;36548;50.506;30.834;2023-07-02T00:23:02;99068.14;;;23.69;61.33
50592;BME280;36548;50.506;30.834;2023-07-02T00:24:12;99068.36;;;23.54;61.48
50592;BME280;36548;50.506;30.834;2023-07-02T00:25:28;99063.71;;;23.61;61.86
50592;BME280;36548;50.506;30.834;2023-07-02T00:26:37;99074.06;;;23.52;61.99
50592;BME280;36548;50.506;30.834;2023-07-02T00:27:54;99066.02;;;23.64;61.85
50592;BME280;36548;50.506;30.834;2023-07-02T00:29:05;99076.36;;;23.55;61.55
50592;BME280;36548;50.506;30.834;2023-07-02T00:30:22;99066.23;;;23.62;61.59
50592;BME280;36548;50.506;30.834;2023-07-02T00:31:33;99067.10;;;23.49;61.76
50592;BME280;36548;50.506;30.834;2023-07-02T00:32:43;99072.58;;;23.49;61.76
50592;BME280;36548;50.506;30.834;2023-07-02T00:33:59;99069.01;;;23.56;61.84
50592;BME280;36548;50.506;30.834;2023-07-02T00:35:12;99071.53;;;23.44;61.97
50592;BME280;36548;50.506;30.834;2023-07-02T00:36:29;99068.36;;;23.54;62.13
50592;BME280;36548;50.506;30.834;2023-07-02T00:37:38;99075.32;;;23.43;62.01
50592;BME280;36548;50.506;30.834;2023-07-02T00:38:49;99068.16;;;23.42;62.11
50592;BME280;36548;50.506;30.834;2023-07-02T00:40:06;99073.02;;;23.53;62.06
50592;BME280;36548;50.506;30.834;2023-07-02T00:41:19;99072.58;;;23.43;62.12
50592;BME280;36548;50.506;30.834;2023-07-02T00:42:34;99067.94;;;23.50;62.08
50592;BME280;36548;50.506;30.834;2023-07-02T00:43:45;99070.27;;;23.40;62.23
50592;BME280;36548;50.506;30.834;2023-07-02T00:44:56;99071.32;;;23.39;62.17
50592;BME280;36548;50.506;30.834;2023-07-02T00:46:17;99065.63;;;23.47;62.27
50592;BME280;36548;50.506;30.834;2023-07-02T00:47:30;99074.27;;;23.37;62.32
50592;BME280;36548;50.506;30.834;2023-07-02T00:48:50;99070.06;;;23.48;62.36
50592;BME280;36548;50.506;30.834;2023-07-02T00:50:00;99075.97;;;23.38;62.37
50592;BME280;36548;50.506;30.834;2023-07-02T00:51:25;99075.32;;;23.49;62.25
50592;BME280;36548;50.506;30.834;2023-07-02T00:52:34;99085.87;;;23.39;62.41
50592;BME280;36548;50.506;30.834;2023-07-02T00:53:46;99078.27;;;23.35;62.42
50592;BME280;36548;50.506;30.834;2023-07-02T00:55:03;99079.53;;;23.39;62.69
50592;BME280;36548;50.506;30.834;2023-07-02T00:56:12;99077.86;;;23.24;62.82
50592;BME280;36548;50.506;30.834;2023-07-02T00:57:27;99077.01;;;23.30;63.04
50592;BME280;36548;50.506;30.834;2023-07-02T00:58:43;99079.77;;;23.17;63.08
50592;BME280;36548;50.506;30.834;2023-07-02T01:00:03;99072.39;;;23.24;63.26
50592;BME280;36548;50.506;30.834;2023-07-02T01:01:24;99085.02;;;23.12;63.33
50592;BME280;36548;50.506;30.834;2023-07-02T01:02:41;99078.50;;;23.20;63.57
50592;BME280;36548;50.506;30.834;2023-07-02T01:04:00;99084.33;;;23.10;63.55
50592;BME280;36548;50.506;30.834;2023-07-02T01:05:17;99086.28;;;23.16;63.49
50592;BME280;36548;50.506;30.834;2023-07-02T01:06:32;99089.41;;;23.06;63.78
50592;BME280;36548;50.506;30.834;2023-07-02T01:07:50;99084.59;;;23.22;63.73
50592;BME280;36548;50.506;30.834;2023-07-02T01:09:02;99082.06;;;23.13;63.45
50592;BME280;36548;50.506;30.834;2023-07-02T01:10:12;99080.16;;;23.14;63.45
50592;BME280;36548;50.506;30.834;2023-07-02T01:11:31;99075.12;;;23.24;63.29
50592;BME280;36548;50.506;30.834;2023-07-02T01:12:41;99073.20;;;23.11;63.36
50592;BME280;36548;50.506;30.834;2023-07-02T01:13:59;99069.00;;;23.22;63.43
50592;BME280;36548;50.506;30.834;2023-07-02T01:15:10;99084.16;;;23.11;63.45
50592;BME280;36548;50.506;30.834;2023-07-02T01:16:21;99084.77;;;23.07;63.49
50592;BME280;36548;50.506;30.834;2023-07-02T01:17:39;99073.02;;;23.13;63.70
50592;BME280;36548;50.506;30.834;2023-07-02T01:18:51;99082.02;;;23.00;63.75
50592;BME280;36548;50.506;30.834;2023-07-02T01:20:05;99080.74;;;22.96;63.90
50592;BME280;36548;50.506;30.834;2023-07-02T01:21:17;99087.50;;;22.93;64.11
50592;BME280;36548;50.506;30.834;2023-07-02T01:22:34;99078.87;;;23.03;64.33
50592;BME280;36548;50.506;30.834;2023-07-02T01:23:43;99083.69;;;22.94;64.38
50592;BME280;36548;50.506;30.834;2023-07-02T01:24:54;99078.87;;;22.96;64.22
50592;BME280;36548;50.506;30.834;2023-07-02T01:26:04;99076.96;;;22.97;63.94
50592;BME280;36548;50.506;30.834;2023-07-02T01:27:21;99067.30;;;23.08;64.00
50592;BME280;36548;50.506;30.834;2023-07-02T01:28:35;99076.53;;;23.00;63.99
50592;BME280;36548;50.506;30.834;2023-07-02T01:29:52;99074.88;;;22.99;63.83
50592;BME280;36548;50.506;30.834;2023-07-02T01:31:08;99070.03;;;23.08;63.90
50592;BME280;36548;50.506;30.834;2023-07-02T01:32:17;99065.19;;;22.96;64.11
50592;BME280;36548;50.506;30.834;2023-07-02T01:33:27;99069.61;;;22.97;64.15
50592;BME280;36548;50.506;30.834;2023-07-02T01:35:01;99064.34;;;23.09;64.08
50592;BME280;36548;50.506;30.834;2023-07-02T01:36:12;99069.19;;;23.01;64.14
50592;BME280;36548;50.506;30.834;2023-07-02T01:37:27;99059.70;;;23.10;64.18
50592;BME280;36548;50.506;30.834;2023-07-02T01:38:36;99064.33;;;23.03;64.10
50592;BME280;36548;50.506;30.834;2023-07-02T01:39:51;99059.95;;;23.15;64.15
50592;BME280;36548;50.506;30.834;2023-07-02T01:41:00;99069.41;;;23.06;63.90
50592;BME280;36548;50.506;30.834;2023-07-02T01:42:18;99063.13;;;23.19;63.93
50592;BME280;36548;50.506;30.834;2023-07-02T01:43:28;99067.08;;;23.09;63.80
50592;BME280;36548;50.506;30.834;2023-07-02T01:44:38;99072.34;;;23.11;63.83
50592;BME280;36548;50.506;30.834;2023-07-02T01:45:49;99064.99;;;23.11;63.74
50592;BME280;36548;50.506;30.834;2023-07-02T01:47:05;99069.86;;;23.23;63.63
50592;BME280;36548;50.506;30.834;2023-07-02T01:48:14;99069.42;;;23.12;63.66
50592;BME280;36548;50.506;30.834;2023-07-02T01:49:32;99069.65;;;23.24;63.61
50592;BME280;36548;50.506;30.834;2023-07-02T01:50:42;99066.87;;;23.11;63.50
50592;BME280;36548;50.506;30.834;2023-07-02T01:51:59;99064.39;;;23.23;63.71
50592;BME280;36548;50.506;30.834;2023-07-02T01:53:09;99069.61;;;23.11;63.64
50592;BME280;36548;50.506;30.834;2023-07-02T01:54:26;99059.95;;;23.15;63.81
50592;BME280;36548;50.506;30.834;2023-07-02T01:55:36;99066.23;;;22.95;64.27
50592;BME280;36548;50.506;30.834;2023-07-02T01:56:45;99063.05;;;22.92;64.59
50592;BME280;36548;50.506;30.834;2023-07-02T01:57:56;99078.85;;;22.90;64.71
50592;BME280;36548;50.506;30.834;2023-07-02T01:59:12;99077.19;;;23.02;64.87
50592;BME280;36548;50.506;30.834;2023-07-02T02:00:22;99071.91;;;22.94;64.89
50592;BME280;36548;50.506;30.834;2023-07-02T02:01:40;99070.86;;;23.08;64.76
50592;BME280;36548;50.506;30.834;2023-07-02T02:02:51;99071.06;;;23.00;64.93
50592;BME280;36548;50.506;30.834;2023-07-02T02:04:00;99081.19;;;23.06;64.77
50592;BME280;36548;50.506;30.834;2023-07-02T02:05:09;99075.29;;;23.09;64.61
50592;BME280;36548;50.506;30.834;2023-07-02T02:06:45;99078.69;;;23.25;64.21
50592;BME280;36548;50.506;30.834;2023-07-02T02:07:55;99074.69;;;23.14;64.17
50592;BME280;36548;50.506;30.834;2023-07-02T02:09:05;99076.13;;;23.10;64.14
50592;BME280;36548;50.506;30.834;2023-07-02T02:10:15;99085.83;;;23.06;64.17
50592;BME280;36548;50.506;30.834;2023-07-02T02:11:26;99072.55;;;23.03;64.34
50592;BME280;36548;50.506;30.834;2023-07-02T02:12:35;99070.45;;;22.98;64.44
50592;BME280;36548;50.506;30.834;2023-07-02T02:13:50;99068.34;;;23.07;64.64
50592;BME280;36548;50.506;30.834;2023-07-02T02:15:00;99077.39;;;22.94;64.71
50592;BME280;36548;50.506;30.834;2023-07-02T02:16:10;99071.08;;;22.93;64.69
50592;BME280;36548;50.506;30.834;2023-07-02T02:17:21;99070.64;;;22.90;64.79
50592;BME280;36548;50.506;30.834;2023-07-02T02:18:38;99070.22;;;22.93;65.01
50592;BME280;36548;50.506;30.834;2023-07-02T02:19:48;99074.42;;;22.75;65.31
50592;BME280;36548;50.506;30.834;2023-07-02T02:20:59;99080.72;;;22.76;65.63
50592;BME280;36548;50.506;30.834;2023-07-02T02:22:16;99069.80;;;22.83;65.56
50592;BME280;36548;50.506;30.834;2023-07-02T02:23:26;99081.14;;;22.73;65.88
50592;BME280;36548;50.506;30.834;2023-07-02T02:24:42;99075.06;;;22.84;65.75
50592;BME280;36548;50.506;30.834;2023-07-02T02:25:53;99081.74;;;22.68;65.82
50592;BME280;36548;50.506;30.834;2023-07-02T02:27:09;99080.10;;;22.74;66.12
50592;BME280;36548;50.506;30.834;2023-07-02T02:28:17;99083.83;;;22.59;66.33
50592;BME280;36548;50.506;30.834;2023-07-02T02:29:39;99080.29;;;22.66;66.60
50592;BME280;36548;50.506;30.834;2023-07-02T02:30:49;99090.14;;;22.53;66.67
50592;BME280;36548;50.506;30.834;2023-07-02T02:32:06;99073.34;;;22.63;66.91
50592;BME280;36548;50.506;30.834;2023-07-02T02:33:15;99072.48;;;22.56;67.07
50592;BME280;36548;50.506;30.834;2023-07-02T02:34:25;99077.33;;;22.60;66.65
50592;BME280;36548;50.506;30.834;2023-07-02T02:35:34;99075.20;;;22.62;66.38
50592;BME280;36548;50.506;30.834;2023-07-02T02:36:51;99072.52;;;22.76;66.89
50592;BME280;36548;50.506;30.834;2023-07-02T02:38:04;99079.66;;;22.70;66.61
50592;BME280;36548;50.506;30.834;2023-07-02T02:39:19;99080.10;;;22.74;66.42
50592;BME280;36548;50.506;30.834;2023-07-02T02:40:29;99078.81;;;22.76;66.03
50592;BME280;36548;50.506;30.834;2023-07-02T02:41:45;99080.09;;;22.80;66.05
50592;BME280;36548;50.506;30.834;2023-07-02T02:42:56;99080.49;;;22.71;66.38
50592;BME280;36548;50.506;30.834;2023-07-02T02:44:12;99085.36;;;22.75;66.32
50592;BME280;36548;50.506;30.834;2023-07-02T02:45:22;99077.33;;;22.60;66.58
50592;BME280;36548;50.506;30.834;2023-07-02T02:46:43;99074.61;;;22.67;66.80
50592;BME280;36548;50.506;30.834;2023-07-02T02:47:55;99078.78;;;22.56;67.10
50592;BME280;36548;50.506;30.834;2023-07-02T02:49:11;99077.73;;;22.64;67.05
50592;BME280;36548;50.506;30.834;2023-07-02T02:50:20;99077.72;;;22.51;67.14
50592;BME280;36548;50.506;30.834;2023-07-02T02:51:36;99081.54;;;22.63;67.25
50592;BME280;36548;50.506;30.834;2023-07-02T02:52:45;99079.20;;;22.53;67.32
50592;BME280;36548;50.506;30.834;2023-07-02T02:54:00;99076.69;;;22.65;67.33
50592;BME280;36548;50.506;30.834;2023-07-02T02:55:09;99077.09;;;22.55;67.39
50592;BME280;36548;50.506;30.834;2023-07-02T02:56:22;99084.66;;;22.60;67.55
50592;BME280;36548;50.506;30.834;2023-07-02T02:57:37;99083.02;;;22.72;67.29
50592;BME280;36548;50.506;30.834;2023-07-02T02:58:47;99078.59;;;22.64;67.21
50592;BME280;36548;50.506;30.834;2023-07-02T03:00:02;99077.98;;;22.76;67.31
50592;BME280;36548;50.506;30.834;2023-07-02T03:01:11;99085.34;;;22.69;67.44
50592;BME280;36548;50.506;30.834;2023-07-02T03:02:27;99078.63;;;22.85;67.38
50592;BME280;36548;50.506;30.834;2023-07-02T03:03:38;99081.99;;;22.80;67.11
50592;BME280;36548;50.506;30.834;2023-07-02T03:04:56;99083.07;;;22.92;66.71
50592;BME280;36548;50.506;30.834;2023-07-02T03:06:06;99083.05;;;22.86;66.92
50592;BME280;36548;50.506;30.834;2023-07-02T03:07:15;99087.89;;;22.90;66.68
50592;BME280;36548;50.506;30.834;2023-07-02T03:08:31;99085.83;;;23.06;66.48
50592;BME280;36548;50.506;30.834;2023-07-02T03:09:41;99092.34;;;22.98;66.41
50592;BME280;36548;50.506;30.834;2023-07-02T03:10:52;99083.91;;;22.99;66.38
50592;BME280;36548;50.506;30.834;2023-07-02T03:12:09;99084.80;;;23.13;66.35
50592;BME280;36548;50.506;30.834;2023-07-02T03:13:19;99079.71;;;23.04;66.41
50592;BME280;36548;50.506;30.834;2023-07-02T03:14:41;99075.55;;;23.14;66.55
50592;BME280;36548;50.506;30.834;2023-07-02T03:15:50;99079.28;;;23.07;66.46
50592;BME280;36548;50.506;30.834;2023-07-02T03:17:06;99079.13;;;23.22;66.38
50592;BME280;36548;50.506;30.834;2023-07-02T03:18:15;99080.55;;;23.11;66.27
50592;BME280;36548;50.506;30.834;2023-07-02T03:19:30;99076.38;;;23.22;66.22
50592;BME280;36548;50.506;30.834;2023-07-02T03:20:39;99079.72;;;23.10;66.27
50592;BME280;36548;50.506;30.834;2023-07-02T03:21:55;99078.29;;;23.21;66.34
50592;BME280;36548;50.506;30.834;2023-07-02T03:23:05;99077.81;;;23.11;66.12
50592;BME280;36548;50.506;30.834;2023-07-02T03:24:21;99078.50;;;23.20;66.02
50592;BME280;36548;50.506;30.834;2023-07-02T03:25:29;99081.19;;;23.06;65.91
50592;BME280;36548;50.506;30.834;2023-07-02T03:26:45;99078.07;;;23.16;66.15
50592;BME280;36548;50.506;30.834;2023-07-02T03:27:54;99080.36;;;23.06;66.17
50592;BME280;36548;50.506;30.834;2023-07-02T03:29:10;99074.69;;;23.14;65.96
50592;BME280;36548;50.506;30.834;2023-07-02T03:30:19;99083.28;;;23.04;66.24
50592;BME280;36548;50.506;30.834;2023-07-02T03:31:34;99075.76;;;23.13;66.06
50592;BME280;36548;50.506;30.834;2023-07-02T03:32:44;99080.75;;;23.03;66.33
50592;BME280;36548;50.506;30.834;2023-07-02T03:33:55;99074.89;;;23.06;66.75
50592;BME280;36548;50.506;30.834;2023-07-02T03:35:11;99064.60;;;23.21;66.50
50592;BME280;36548;50.506;30.834;2023-07-02T03:36:22;99072.81;;;23.14;66.46
50592;BME280;36548;50.506;30.834;2023-07-02T03:37:38;99075.12;;;23.31;66.23
50592;BME280;36548;50.506;30.834;2023-07-02T03:38:48;99081.64;;;23.23;65.83
50592;BME280;36548;50.506;30.834;2023-07-02T03:40:06;99070.92;;;23.35;65.92
50592;BME280;36548;50.506;30.834;2023-07-02T03:41:15;99068.18;;;23.28;65.78
50592;BME280;36548;50.506;30.834;2023-07-02T03:42:32;99072.80;;;23.41;65.53
50592;BME280;36548;50.506;30.834;2023-07-02T03:43:42;99077.01;;;23.30;65.27
50592;BME280;36548;50.506;30.834;2023-07-02T03:44:57;99071.97;;;23.41;65.27
50592;BME280;36548;50.506;30.834;2023-07-02T03:46:07;99075.12;;;23.31;65.37
50592;BME280;36548;50.506;30.834;2023-07-02T03:47:23;99067.32;;;23.41;65.53
50592;BME280;36548;50.506;30.834;2023-07-02T03:48:34;99069.88;;;23.29;65.30
50592;BME280;36548;50.506;30.834;2023-07-02T03:49:49;99062.27;;;23.38;65.91
50592;BME280;36548;50.506;30.834;2023-07-02T03:51:01;99062.70;;;23.28;66.35
50592;BME280;36548;50.506;30.834;2023-07-02T03:52:11;99065.02;;;23.31;66.70
50592;BME280;36548;50.506;30.834;2023-07-02T03:53:27;99056.58;;;23.46;66.66
50592;BME280;36548;50.506;30.834;2023-07-02T03:54:36;99063.10;;;23.39;66.65
50592;BME280;36548;50.506;30.834;2023-07-02T03:55:51;99062.45;;;23.50;66.69
50592;BME280;36548;50.506;30.834;2023-07-02T03:57:00;99073.84;;;23.40;66.78
50592;BME280;36548;50.506;30.834;2023-07-02T03:58:35;99067.94;;;23.50;67.08
50592;BME280;36548;50.506;30.834;2023-07-02T03:59:46;99076.18;;;23.43;66.96
50592;BME280;36548;50.506;30.834;2023-07-02T04:01:02;99071.75;;;23.56;67.19
50592;BME280;36548;50.506;30.834;2023-07-02T04:02:12;99068.36;;;23.47;67.19
50592;BME280;36548;50.506;30.834;2023-07-02T04:03:28;99065.41;;;23.62;67.25
50592;BME280;36548;50.506;30.834;2023-07-02T04:04:38;99071.10;;;23.54;67.01
50592;BME280;36548;50.506;30.834;2023-07-02T04:05:54;99067.49;;;23.66;66.80
50592;BME280;36548;50.506;30.834;2023-07-02T04:07:03;99066.05;;;23.57;66.57
50592;BME280;36548;50.506;30.834;2023-07-02T04:08:18;99063.27;;;23.71;66.46
50592;BME280;36548;50.506;30.834;2023-07-02T04:09:31;99070.67;;;23.63;66.50
50592;BME280;36548;50.506;30.834;2023-07-02T04:10:48;99068.52;;;23.79;66.94
50592;BME280;36548;50.506;30.834;2023-07-02T04:11:58;99078.87;;;23.70;66.81
50592;BME280;36548;50.506;30.834;2023-07-02T04:13:08;99074.23;;;23.71;66.24
50592;BME280;36548;50.506;30.834;2023-07-02T04:14:24;99074.22;;;23.77;66.45
50592;BME280;36548;50.506;30.834;2023-07-02T04:15:34;99075.09;;;23.64;66.84
50592;BME280;36548;50.506;30.834;2023-07-02T04:16:50;99065.61;;;23.74;67.99
50592;BME280;36548;50.506;30.834;2023-07-02T04:17:59;99071.31;;;23.65;67.96
50592;BME280;36548;50.506;30.834;2023-07-02T04:19:14;99074.00;;;23.79;67.88
50592;BME280;36548;50.506;30.834;2023-07-02T04:20:24;99073.19;;;23.72;67.73
50592;BME280;36548;50.506;30.834;2023-07-02T04:21:34;99071.09;;;23.74;67.48
50592;BME280;36548;50.506;30.834;2023-07-02T04:22:45;99073.61;;;23.75;67.32
50592;BME280;36548;50.506;30.834;2023-07-02T04:23:54;99074.22;;;23.77;67.44
50592;BME280;36548;50.506;30.834;2023-07-02T04:25:14;99069.14;;;23.94;67.57
50592;BME280;36548;50.506;30.834;2023-07-02T04:26:26;99076.73;;;23.86;67.39
50592;BME280;36548;50.506;30.834;2023-07-02T04:27:42;99078.00;;;24.03;67.12
50592;BME280;36548;50.506;30.834;2023-07-02T04:28:57;99080.52;;;24.05;67.12
50592;BME280;36548;50.506;30.834;2023-07-02T04:30:13;99069.44;;;24.31;66.88
50592;BME280;36548;50.506;30.834;2023-07-02T04:31:22;99080.83;;;24.35;66.45
50592;BME280;36548;50.506;30.834;2023-07-02T04:32:39;99070.58;;;24.62;65.88
50592;BME280;36548;50.506;30.834;2023-07-02T04:33:47;99075.20;;;24.68;65.64
50592;BME280;36548;50.506;30.834;2023-07-02T04:35:07;99060.62;;;25.00;64.77
50592;BME280;36548;50.506;30.834;2023-07-02T04:36:17;99074.14;;;25.01;63.87
50592;BME280;36548;50.506;30.834;2023-07-02T04:37:33;99067.58;;;25.28;63.65
50592;BME280;36548;50.506;30.834;2023-07-02T04:38:44;99072.82;;;25.36;63.19
50592;BME280;36548;50.506;30.834;2023-07-02T04:39:59;99066.47;;;25.61;62.10
50592;BME280;36548;50.506;30.834;2023-07-02T04:41:08;99074.48;;;25.62;61.10
50592;BME280;36548;50.506;30.834;2023-07-02T04:42:20;99067.05;;;25.69;61.18
50592;BME280;36548;50.506;30.834;2023-07-02T04:43:37;99068.44;;;25.97;61.49
50592;BME280;36548;50.506;30.834;2023-07-02T04:44:46;99075.36;;;26.00;60.46
50592;BME280;36548;50.506;30.834;2023-07-02T04:45:57;99076.08;;;26.14;60.34
50592;BME280;36548;50.506;30.834;2023-07-02T04:47:14;99069.17;;;26.42;59.48
50592;BME280;36548;50.506;30.834;2023-07-02T04:48:23;99070.73;;;26.37;58.56
50592;BME280;36548;50.506;30.834;2023-07-02T04:49:38;99058.62;;;26.57;58.80
50592;BME280;36548;50.506;30.834;2023-07-02T04:50:47;99071.28;;;26.58;58.57
50592;BME280;36548;50.506;30.834;2023-07-02T04:51:58;99069.89;;;26.67;58.05
50592;BME280;36548;50.506;30.834;2023-07-02T04:53:09;99065.63;;;26.71;57.81
50592;BME280;36548;50.506;30.834;2023-07-02T04:54:17;99063.77;;;26.84;57.49
50592;BME280;36548;50.506;30.834;2023-07-02T04:55:27;99061.98;;;26.90;56.95
50592;BME280;36548;50.506;30.834;2023-07-02T04:56:42;99057.82;;;26.99;56.41
50592;BME280;36548;50.506;30.834;2023-07-02T04:57:51;99058.16;;;26.91;56.75
50592;BME280;36548;50.506;30.834;2023-07-02T04:59:06;99055.80;;;27.06;56.49
50592;BME280;36548;50.506;30.834;2023-07-02T05:00:17;99061.06;;;27.08;56.60
50592;BME280;36548;50.506;30.834;2023-07-02T05:01:30;99057.24;;;27.20;55.87
50592;BME280;36548;50.506;30.834;2023-07-02T05:02:46;99055.64;;;27.43;55.18
50592;BME280;36548;50.506;30.834;2023-07-02T05:03:55;99055.64;;;27.43;54.82
50592;BME280;36548;50.506;30.834;2023-07-02T05:05:04;99063.06;;;27.54;54.66
50592;BME280;36548;50.506;30.834;2023-07-02T05:06:13;99063.78;;;27.62;53.86
50592;BME280;36548;50.506;30.834;2023-07-02T05:07:23;99057.66;;;27.71;54.17
50592;BME280;36548;50.506;30.834;2023-07-02T05:08:32;99057.17;;;27.86;53.58
50592;BME280;36548;50.506;30.834;2023-07-02T05:09:41;99056.44;;;27.91;52.35
50592;BME280;36548;50.506;30.834;2023-07-02T05:10:57;99058.48;;;28.08;52.31
50592;BME280;36548;50.506;30.834;2023-07-02T05:12:06;99060.88;;;28.04;52.25
50592;BME280;36548;50.506;30.834;2023-07-02T05:13:23;99055.79;;;28.24;51.40
50592;BME280;36548;50.506;30.834;2023-07-02T05:14:32;99064.20;;;28.18;51.76
50592;BME280;36548;50.506;30.834;2023-07-02T05:15:47;99058.17;;;28.33;51.08
50592;BME280;36548;50.506;30.834;2023-07-02T05:16:56;99064.81;;;28.20;51.02
50592;BME280;36548;50.506;30.834;2023-07-02T05:18:06;99066.38;;;28.16;50.55
50592;BME280;36548;50.506;30.834;2023-07-02T05:19:16;99068.44;;;28.09;50.86
50592;BME280;36548;50.506;30.834;2023-07-02T05:20:31;99064.11;;;28.13;50.83
50592;BME280;36548;50.506;30.834;2023-07-02T05:21:41;99065.66;;;27.97;50.76
50592;BME280;36548;50.506;30.834;2023-07-02T05:22:52;99063.27;;;27.88;51.02
50592;BME280;36548;50.506;30.834;2023-07-02T05:24:09;99066.98;;;27.94;50.90
50592;BME280;36548;50.506;30.834;2023-07-02T05:25:19;99064.13;;;27.77;50.61
50592;BME280;36548;50.506;30.834;2023-07-02T05:26:34;99068.08;;;27.81;50.75
50592;BME280;36548;50.506;30.834;2023-07-02T05:27:44;99070.00;;;27.69;50.65
50592;BME280;36548;50.506;30.834;2023-07-02T05:28:59;99062.32;;;27.83;51.14
50592;BME280;36548;50.506;30.834;2023-07-02T05:30:10;99072.16;;;27.79;50.90
50592;BME280;36548;50.506;30.834;2023-07-02T05:31:26;99065.91;;;27.95;50.61
50592;BME280;36548;50.506;30.834;2023-07-02T05:32:35;99074.05;;;27.90;50.58
50592;BME280;36548;50.506;30.834;2023-07-02T05:33:45;99073.84;;;28.03;50.85
50592;BME280;36548;50.506;30.834;2023-07-02T05:34:55;99073.58;;;28.17;50.33
50592;BME280;36548;50.506;30.834;2023-07-02T05:36:05;99068.16;;;28.22;50.61
50592;BME280;36548;50.506;30.834;2023-07-02T05:37:20;99063.98;;;28.48;50.68
50592;BME280;36548;50.506;30.834;2023-07-02T05:38:29;99070.70;;;28.52;50.18
50592;BME280;36548;50.506;30.834;2023-07-02T05:39:45;99064.37;;;28.81;49.72
50592;BME280;36548;50.506;30.834;2023-07-02T05:40:53;99061.94;;;28.84;49.31
50592;BME280;36548;50.506;30.834;2023-07-02T05:42:09;99059.64;;;29.10;48.49
50592;BME280;36548;50.506;30.834;2023-07-02T05:43:19;99058.05;;;28.97;47.95
50592;BME280;36548;50.506;30.834;2023-07-02T05:44:34;99060.88;;;29.02;47.90
50592;BME280;36548;50.506;30.834;2023-07-02T05:45:42;99063.22;;;28.94;47.36
50592;BME280;36548;50.506;30.834;2023-07-02T05:46:58;99057.61;;;29.05;47.05
50592;BME280;36548;50.506;30.834;2023-07-02T05:48:08;99056.36;;;28.96;47.33
50592;BME280;36548;50.506;30.834;2023-07-02T05:49:17;99051.16;;;29.00;47.17
50592;BME280;36548;50.506;30.834;2023-07-02T05:50:27;99054.37;;;29.08;47.30
50592;BME280;36548;50.506;30.834;2023-07-02T05:51:42;99050.39;;;29.33;46.93
50592;BME280;36548;50.506;30.834;2023-07-02T05:52:53;99049.79;;;29.31;46.28
50592;BME280;36548;50.506;30.834;2023-07-02T05:54:08;99044.23;;;29.48;45.68
50592;BME280;36548;50.506;30.834;2023-07-02T05:55:17;99046.86;;;29.38;44.76
50592;BME280;36548;50.506;30.834;2023-07-02T05:56:33;99039.63;;;29.54;44.84
50592;BME280;36548;50.506;30.834;2023-07-02T05:57:43;99045.09;;;29.49;44.66
50592;BME280;36548;50.506;30.834;2023-07-02T05:58:59;99042.87;;;29.68;44.37
50592;BME280;36548;50.506;30.834;2023-07-02T06:00:09;99046.14;;;29.65;44.66
50592;BME280;36548;50.506;30.834;2023-07-02T06:01:25;99040.94;;;29.85;44.96
50592;BME280;36548;50.506;30.834;2023-07-02T06:02:34;99040.12;;;29.85;45.00
50592;BME280;36548;50.506;30.834;2023-07-02T06:03:50;99026.67;;;29.93;44.58
50592;BME280;36548;50.506;30.834;2023-07-02T06:04:59;99039.86;;;29.86;45.00
50592;BME280;36548;50.506;30.834;2023-07-02T06:06:11;99040.77;;;29.92;44.51
50592;BME280;36548;50.506;30.834;2023-07-02T06:07:28;99030.90;;;30.01;44.76
50592;BME280;36548;50.506;30.834;2023-07-02T06:08:37;99044.53;;;29.86;44.58
50592;BME280;36548;50.506;30.834;2023-07-02T06:09:45;99041.17;;;29.84;44.74
50592;BME280;36548;50.506;30.834;2023-07-02T06:11:01;99032.13;;;29.88;44.75
50592;BME280;36548;50.506;30.834;2023-07-02T06:12:12;99038.25;;;29.73;44.98
50592;BME280;36548;50.506;30.834;2023-07-02T06:13:28;99034.99;;;29.76;45.20
50592;BME280;36548;50.506;30.834;2023-07-02T06:14:36;99034.52;;;29.63;45.56
50592;BME280;36548;50.506;30.834;2023-07-02T06:15:45;99038.28;;;29.56;45.30
50592;BME280;36548;50.506;30.834;2023-07-02T06:17:01;99035.78;;;29.55;45.53
50592;BME280;36548;50.506;30.834;2023-07-02T06:18:13;99044.35;;;29.36;45.62
50592;BME280;36548;50.506;30.834;2023-07-02T06:19:23;99041.31;;;29.21;45.72
50592;BME280;36548;50.506;30.834;2023-07-02T06:20:32;99039.44;;;29.09;46.00